Time;durP1;ratioP1;P1;durP2;ratioP2;P2;SDS_P1;SDS_P2;PMS_P1;PMS_P2;Temp;Humidity;BMP_temperature;BMP_pressure;BME280_temperature;BME280_humidity;BME280_pressure;Samples;Min_cycle;Max_cycle;Signal;HPM_P1;HPM_P2
2021/12/18 00:00:19;;;;;;;468.20;74.53;;;3.70;96.30;;;;;;5027019;28;20564;-71
2021/12/18 00:02:50;;;;;;;385.43;65.17;;;3.70;96.30;;;;;;5024687;28;20248;-71
2021/12/18 00:05:17;;;;;;;755.90;88.27;;;3.60;96.40;;;;;;5035977;28;20220;-71
2021/12/18 00:07:44;;;;;;;434.67;68.73;;;3.60;96.40;;;;;;5036077;28;20550;-71
2021/12/18 00:10:12;;;;;;;564.37;83.87;;;3.60;96.40;;;;;;5027347;28;20224;-71
2021/12/18 00:12:47;;;;;;;287.43;63.73;;;3.60;96.50;;;;;;5038641;28;20247;-71
2021/12/18 00:15:14;;;;;;;384.70;64.13;;;3.60;96.60;;;;;;5018197;28;20215;-71
2021/12/18 00:17:42;;;;;;;603.70;83.57;;;3.60;96.60;;;;;;5020011;28;20719;-71
2021/12/18 00:20:10;;;;;;;549.20;77.67;;;3.60;96.60;;;;;;5019231;28;20660;-71
2021/12/18 00:22:38;;;;;;;248.47;56.87;;;3.60;96.60;;;;;;5022685;28;20662;-71
2021/12/18 00:25:05;;;;;;;245.17;58.67;;;3.60;96.50;;;;;;5021443;28;20311;-71
2021/12/18 00:27:32;;;;;;;205.90;56.10;;;3.60;96.50;;;;;;5030113;28;20221;-71
2021/12/18 00:30:00;;;;;;;214.03;56.03;;;3.70;96.50;;;;;;5033236;28;20223;-71
2021/12/18 00:32:28;;;;;;;189.50;56.93;;;3.70;96.50;;;;;;5021546;28;20744;-71
2021/12/18 00:34:55;;;;;;;211.87;55.60;;;3.70;96.40;;;;;;5020098;28;20206;-71
2021/12/18 00:37:23;;;;;;;274.33;58.27;;;3.80;96.40;;;;;;5030643;28;20257;-70
2021/12/18 00:39:56;;;;;;;229.70;58.97;;;3.80;96.30;;;;;;5031834;28;20216;-70
2021/12/18 00:45:07;;;;;;;227.23;58.93;;;3.80;96.10;;;;;;5025182;28;20549;-70
2021/12/18 00:47:35;;;;;;;269.37;61.23;;;3.90;96.10;;;;;;5024383;28;20240;-70
2021/12/18 00:50:05;;;;;;;754.33;86.60;;;3.90;96.00;;;;;;5031636;28;20784;-70
2021/12/18 00:52:32;;;;;;;201.47;55.53;;;3.90;96.00;;;;;;5026053;28;20353;-70
2021/12/18 00:55:00;;;;;;;153.43;53.70;;;3.90;95.90;;;;;;5036479;28;20220;-70
2021/12/18 00:57:27;;;;;;;258.00;57.83;;;3.90;95.90;;;;;;5029669;28;20644;-70
2021/12/18 00:59:59;;;;;;;188.47;56.60;;;4.00;95.90;;;;;;5045867;28;20218;-70
2021/12/18 01:02:28;;;;;;;202.07;53.97;;;4.00;95.80;;;;;;5026007;28;20209;-70
2021/12/18 01:04:56;;;;;;;527.20;70.20;;;4.00;95.70;;;;;;5023748;28;20220;-71
2021/12/18 01:07:24;;;;;;;373.83;61.87;;;4.00;95.60;;;;;;5027670;28;20224;-71
2021/12/18 01:12:19;;;;;;;262.33;59.30;;;4.00;95.50;;;;;;5017372;28;20240;-71
2021/12/18 01:22:47;;;;;;;174.17;50.23;;;4.00;95.20;;;;;;5018781;28;20305;-71
2021/12/18 01:25:18;;;;;;;215.93;50.40;;;4.00;95.00;;;;;;5025273;28;20659;-71
2021/12/18 01:27:46;;;;;;;175.70;50.27;;;4.00;95.00;;;;;;5027871;28;20212;-70
2021/12/18 01:30:15;;;;;;;260.67;52.17;;;4.00;94.90;;;;;;5030919;28;20207;-70
2021/12/18 01:32:43;;;;;;;337.97;57.10;;;4.00;94.90;;;;;;5023391;28;20233;-70
2021/12/18 01:35:11;;;;;;;141.80;48.83;;;4.00;94.90;;;;;;5022591;28;20224;-70
2021/12/18 01:37:40;;;;;;;702.60;68.47;;;3.90;94.70;;;;;;5013271;28;20666;-70
2021/12/18 01:40:08;;;;;;;185.40;47.57;;;3.90;94.80;;;;;;5015391;28;20211;-70
2021/12/18 01:45:26;;;;;;;691.40;69.47;;;3.80;94.80;;;;;;5022825;28;20210;-71
2021/12/18 01:53:18;;;;;;;156.03;48.57;;;3.70;94.60;;;;;;5028433;28;20264;-71
2021/12/18 01:55:49;;;;;;;563.87;57.77;;;3.70;94.60;;;;;;5005630;28;20209;-71
2021/12/18 01:58:21;;;;;;;211.03;50.33;;;3.70;94.60;;;;;;5019007;28;20292;-71
2021/12/18 02:00:50;;;;;;;149.10;47.10;;;3.70;94.60;;;;;;5031092;28;20216;-71
2021/12/18 02:03:18;;;;;;;119.03;45.90;;;3.70;94.70;;;;;;5028575;28;20240;-71
2021/12/18 02:05:49;;;;;;;133.10;44.40;;;3.70;94.70;;;;;;5023520;28;20623;-72
2021/12/18 02:08:25;;;;;;;180.43;47.63;;;3.70;94.70;;;;;;5019165;28;20302;-71
2021/12/18 02:11:00;;;;;;;353.20;48.23;;;3.70;94.60;;;;;;5014897;28;20207;-71
2021/12/18 02:21:31;;;;;;;266.73;45.77;;;3.50;94.00;;;;;;4999819;28;20211;-71
2021/12/18 02:23:58;;;;;;;464.43;48.07;;;3.40;93.80;;;;;;5024736;28;20214;-71
2021/12/18 02:26:26;;;;;;;126.43;39.27;;;3.40;93.90;;;;;;5026049;28;20219;-71
2021/12/18 02:28:57;;;;;;;167.17;44.13;;;3.30;93.90;;;;;;4989027;28;20236;-70
2021/12/18 02:31:25;;;;;;;447.57;52.83;;;3.30;94.00;;;;;;5017267;28;20212;-70
2021/12/18 02:33:52;;;;;;;536.70;58.67;;;3.20;94.20;;;;;;5023068;28;20242;-71
2021/12/18 02:36:25;;;;;;;842.07;68.00;;;3.20;94.10;;;;;;5023384;28;20582;-71
2021/12/18 02:44:06;;;;;;;196.47;47.80;;;3.10;94.40;;;;;;5006090;28;20223;-71
2021/12/18 02:46:34;;;;;;;159.73;46.97;;;3.10;94.50;;;;;;5013992;28;20224;-71
2021/12/18 02:49:12;;;;;;;114.50;43.33;;;3.10;94.50;;;;;;5026639;28;20215;-71
2021/12/18 02:51:40;;;;;;;237.20;48.77;;;3.20;94.60;;;;;;5020146;28;20657;-71
2021/12/18 02:54:07;;;;;;;378.43;50.97;;;3.20;94.50;;;;;;5025238;28;20676;-70
2021/12/18 02:56:35;;;;;;;424.57;54.03;;;3.20;94.50;;;;;;5021331;28;20286;-70
2021/12/18 02:59:08;;;;;;;180.47;41.07;;;3.20;94.40;;;;;;5027151;28;20242;-70
2021/12/18 03:01:38;;;;;;;204.93;43.00;;;3.20;94.40;;;;;;5005391;28;20215;-70
2021/12/18 03:04:16;;;;;;;160.03;44.47;;;3.10;94.30;;;;;;5026680;28;20246;-70
2021/12/18 03:06:48;;;;;;;99.73;42.17;;;3.10;94.20;;;;;;5028896;28;20236;-71
2021/12/18 03:09:48;;;;;;;222.10;45.10;;;3.10;94.30;;;;;;5023983;28;20520;-70
2021/12/18 03:25:38;;;;;;;145.73;43.10;;;3.10;94.50;;;;;;5029149;28;20299;-71
2021/12/18 03:28:07;;;;;;;181.30;42.97;;;3.10;94.60;;;;;;5027799;28;20215;-71
2021/12/18 03:30:41;;;;;;;116.33;43.27;;;3.10;94.60;;;;;;5022185;28;20220;-71
2021/12/18 03:33:08;;;;;;;361.47;51.57;;;3.10;94.60;;;;;;5017799;28;20546;-71
2021/12/18 03:35:35;;;;;;;126.03;44.00;;;3.10;94.60;;;;;;5017122;28;20205;-70
2021/12/18 03:38:03;;;;;;;281.80;45.57;;;3.10;94.50;;;;;;5025117;28;20250;-70
2021/12/18 03:40:31;;;;;;;141.43;40.87;;;3.10;94.50;;;;;;5042049;28;20219;-70
2021/12/18 03:42:58;;;;;;;174.27;41.40;;;3.20;94.50;;;;;;5023337;28;20215;-70
2021/12/18 03:45:26;;;;;;;155.87;40.33;;;3.10;94.50;;;;;;5016123;28;20222;-70
2021/12/18 03:47:53;;;;;;;159.27;42.40;;;3.10;94.50;;;;;;5038893;28;20252;-70
2021/12/18 03:50:21;;;;;;;225.83;39.73;;;3.20;94.40;;;;;;5023967;28;20215;-70
2021/12/18 03:52:49;;;;;;;166.13;37.40;;;3.10;94.20;;;;;;5024301;28;20327;-70
2021/12/18 03:55:17;;;;;;;113.30;38.60;;;3.10;94.20;;;;;;5020237;28;20220;-70
2021/12/18 03:57:44;;;;;;;331.23;47.70;;;3.00;94.10;;;;;;5037551;28;20200;-71
2021/12/18 04:00:15;;;;;;;573.93;53.47;;;3.00;94.00;;;;;;5039926;28;20307;-70
2021/12/18 04:02:43;;;;;;;198.73;36.40;;;3.00;93.80;;;;;;5021761;28;20252;-70
2021/12/18 04:05:11;;;;;;;215.37;38.67;;;2.90;93.60;;;;;;4993859;28;20207;-70
2021/12/18 04:07:44;;;;;;;242.50;43.13;;;2.80;93.70;;;;;;5021102;28;20639;-70
2021/12/18 04:10:14;;;;;;;241.37;39.17;;;2.80;93.70;;;;;;5024860;28;20211;-70
2021/12/18 04:12:42;;;;;;;75.33;33.33;;;2.80;93.80;;;;;;5026405;28;20204;-70
2021/12/18 04:15:10;;;;;;;196.93;37.43;;;2.70;93.70;;;;;;5014576;28;20243;-71
2021/12/18 04:17:37;;;;;;;153.03;36.97;;;2.70;93.90;;;;;;5017474;28;20208;-71
2021/12/18 04:20:06;;;;;;;116.87;37.70;;;2.60;94.00;;;;;;5020885;28;20248;-71
2021/12/18 04:22:33;;;;;;;98.00;33.37;;;2.60;94.10;;;;;;5005704;28;20553;-71
2021/12/18 04:25:00;;;;;;;192.17;40.73;;;2.60;94.20;;;;;;5029441;28;20315;-71
2021/12/18 04:27:28;;;;;;;250.87;42.70;;;2.60;94.10;;;;;;5029962;28;20259;-71
2021/12/18 04:29:55;;;;;;;257.47;37.40;;;2.60;94.20;;;;;;5027214;28;20220;-71
2021/12/18 04:32:22;;;;;;;152.27;38.03;;;2.60;94.00;;;;;;5006167;28;20229;-71
2021/12/18 04:34:50;;;;;;;159.77;36.33;;;2.50;93.90;;;;;;5013518;28;20237;-70
2021/12/18 04:37:17;;;;;;;102.90;35.07;;;2.50;94.10;;;;;;5031911;28;20274;-70
2021/12/18 04:39:45;;;;;;;343.03;40.23;;;2.50;94.20;;;;;;5028246;28;20311;-71
2021/12/18 04:42:12;;;;;;;174.53;41.60;;;2.50;94.20;;;;;;5025460;28;20209;-71
2021/12/18 04:44:39;;;;;;;450.83;45.57;;;2.50;94.20;;;;;;4984570;28;20246;-71
2021/12/18 04:47:07;;;;;;;128.67;35.77;;;2.50;94.30;;;;;;5019637;28;20306;-71
2021/12/18 04:49:34;;;;;;;193.77;39.00;;;2.50;94.30;;;;;;5001491;28;20212;-71
2021/12/18 04:52:02;;;;;;;118.70;36.93;;;2.50;94.40;;;;;;5022207;28;20222;-71
2021/12/18 04:54:29;;;;;;;102.67;39.43;;;2.50;94.30;;;;;;5021764;28;20562;-71
2021/12/18 04:56:57;;;;;;;124.90;39.50;;;2.50;94.40;;;;;;5030495;28;20373;-71
2021/12/18 04:59:25;;;;;;;127.17;38.80;;;2.60;94.50;;;;;;5000365;28;20395;-71
2021/12/18 05:01:53;;;;;;;121.60;36.20;;;2.60;94.60;;;;;;5003768;28;20223;-71
2021/12/18 05:04:20;;;;;;;127.07;36.63;;;2.60;94.50;;;;;;5020459;28;20240;-71
2021/12/18 05:06:51;;;;;;;182.30;35.60;;;2.60;94.40;;;;;;5031035;28;20215;-71
2021/12/18 05:09:18;;;;;;;196.27;38.80;;;2.60;94.30;;;;;;5028942;28;20209;-71
2021/12/18 05:11:46;;;;;;;193.17;39.47;;;2.60;94.20;;;;;;5011490;28;20618;-71
2021/12/18 05:14:14;;;;;;;291.77;45.57;;;2.50;94.10;;;;;;5019034;28;20240;-71
2021/12/18 05:16:41;;;;;;;245.03;38.90;;;2.50;94.20;;;;;;5011194;28;20208;-70
2021/12/18 05:19:08;;;;;;;255.87;43.87;;;2.40;94.40;;;;;;5019277;28;20507;-71
2021/12/18 05:21:36;;;;;;;204.07;43.70;;;2.40;94.40;;;;;;5025847;28;20203;-70
2021/12/18 05:24:03;;;;;;;183.87;40.40;;;2.40;94.50;;;;;;5023575;28;20224;-70
2021/12/18 05:26:31;;;;;;;240.97;42.33;;;2.30;94.60;;;;;;5011055;28;20216;-70
2021/12/18 05:28:58;;;;;;;356.80;47.47;;;2.30;94.70;;;;;;5014541;28;20231;-70
2021/12/18 05:31:25;;;;;;;172.10;41.67;;;2.30;94.80;;;;;;5018306;28;20290;-70
2021/12/18 05:33:58;;;;;;;232.30;42.20;;;2.30;94.90;;;;;;5022392;28;20567;-70
2021/12/18 05:36:51;;;;;;;159.03;36.83;;;2.30;95.00;;;;;;5000060;28;20578;-70
2021/12/18 05:39:18;;;;;;;207.83;34.93;;;2.30;95.00;;;;;;4981189;28;20204;-70
2021/12/18 05:41:47;;;;;;;227.53;39.60;;;2.20;95.10;;;;;;4993068;28;20600;-70
2021/12/18 05:44:15;;;;;;;353.47;44.13;;;2.20;95.20;;;;;;5023073;28;20323;-70
2021/12/18 05:46:42;;;;;;;179.00;34.83;;;2.20;95.20;;;;;;5033155;28;20211;-70
2021/12/18 05:49:09;;;;;;;259.53;38.27;;;2.20;95.30;;;;;;5011585;28;20302;-71
2021/12/18 05:51:37;;;;;;;295.47;39.73;;;2.10;95.30;;;;;;5023554;28;20227;-71
2021/12/18 05:54:06;;;;;;;230.43;41.53;;;2.10;95.50;;;;;;5034018;28;20312;-71
2021/12/18 05:56:33;;;;;;;236.83;39.33;;;2.10;95.60;;;;;;5009331;28;20613;-71
2021/12/18 05:59:01;;;;;;;232.83;39.10;;;2.20;95.70;;;;;;5023235;28;20681;-71
2021/12/18 06:01:28;;;;;;;187.17;38.67;;;2.10;95.70;;;;;;5022733;28;20628;-70
2021/12/18 06:03:56;;;;;;;129.00;36.73;;;2.10;95.70;;;;;;5036012;28;20282;-70
2021/12/18 06:06:25;;;;;;;278.77;45.27;;;2.10;95.70;;;;;;5032512;28;20315;-70
2021/12/18 06:08:52;;;;;;;282.83;47.07;;;2.20;95.80;;;;;;5033565;28;20240;-71
2021/12/18 06:11:21;;;;;;;226.50;40.87;;;2.20;95.80;;;;;;5035966;28;20561;-71
2021/12/18 06:13:51;;;;;;;134.67;39.07;;;2.10;95.80;;;;;;5047813;28;20240;-71
2021/12/18 06:16:20;;;;;;;219.60;42.67;;;2.10;95.90;;;;;;5031625;28;20243;-71
2021/12/18 06:18:51;;;;;;;218.90;43.97;;;2.20;95.90;;;;;;5040503;28;20207;-71
2021/12/18 06:21:20;;;;;;;153.87;37.63;;;2.10;95.80;;;;;;5021188;28;20223;-71
2021/12/18 06:23:51;;;;;;;231.70;42.03;;;2.10;95.80;;;;;;5025583;28;20703;-71
2021/12/18 06:26:21;;;;;;;189.13;39.27;;;2.10;95.70;;;;;;5042452;28;20219;-71
2021/12/18 06:28:49;;;;;;;127.67;38.70;;;2.10;95.90;;;;;;5038541;28;20251;-71
2021/12/18 06:31:33;;;;;;;88.60;38.10;;;2.10;96.00;;;;;;5023131;28;20235;-71
2021/12/18 06:34:02;;;;;;;247.03;43.93;;;2.10;96.10;;;;;;5047365;28;20241;-71
2021/12/18 06:36:29;;;;;;;86.80;34.50;;;2.20;96.20;;;;;;5026867;28;20221;-71
2021/12/18 06:38:57;;;;;;;212.23;42.20;;;2.20;96.10;;;;;;5038681;28;20657;-71
2021/12/18 06:41:24;;;;;;;131.20;34.20;;;2.30;96.10;;;;;;5019932;28;20236;-71
2021/12/18 06:43:51;;;;;;;247.37;38.57;;;2.30;96.00;;;;;;5033697;28;20259;-71
2021/12/18 06:46:19;;;;;;;229.47;37.00;;;2.30;95.70;;;;;;5043686;28;20223;-71
2021/12/18 06:48:46;;;;;;;337.00;39.47;;;2.30;95.50;;;;;;5041608;28;20220;-71
2021/12/18 06:51:18;;;;;;;140.67;32.60;;;2.20;95.40;;;;;;5037036;28;20556;-71
2021/12/18 06:53:45;;;;;;;94.83;32.10;;;2.20;95.40;;;;;;5026022;28;20224;-71
2021/12/18 06:56:13;;;;;;;184.23;34.17;;;2.20;95.40;;;;;;5025011;28;20213;-71
2021/12/18 06:58:41;;;;;;;117.60;33.80;;;2.20;95.40;;;;;;5028496;28;20485;-70
2021/12/18 07:01:08;;;;;;;291.90;41.40;;;2.20;95.40;;;;;;5020343;28;20243;-70
2021/12/18 07:03:35;;;;;;;133.67;33.97;;;2.20;95.50;;;;;;5034771;28;20456;-70
2021/12/18 07:06:03;;;;;;;256.53;40.53;;;2.20;95.60;;;;;;5037377;28;20240;-70
2021/12/18 07:08:30;;;;;;;167.23;37.73;;;2.20;95.60;;;;;;5023845;28;20301;-70
2021/12/18 07:10:58;;;;;;;129.33;34.93;;;2.20;95.60;;;;;;5036306;28;20621;-70
2021/12/18 07:13:28;;;;;;;121.33;33.50;;;2.20;95.60;;;;;;5017868;28;20207;-70
2021/12/18 07:15:55;;;;;;;107.90;32.83;;;2.20;95.60;;;;;;5031136;28;20311;-71
2021/12/18 07:18:22;;;;;;;149.57;33.87;;;2.20;95.60;;;;;;5024229;28;20208;-71
2021/12/18 07:20:51;;;;;;;124.87;33.17;;;2.30;95.60;;;;;;5031631;28;20277;-70
2021/12/18 07:23:19;;;;;;;117.13;33.57;;;2.30;95.60;;;;;;5049036;28;20204;-70
2021/12/18 07:25:46;;;;;;;99.53;34.90;;;2.40;95.60;;;;;;5029585;28;20598;-70
2021/12/18 07:28:13;;;;;;;89.47;33.00;;;2.40;95.60;;;;;;5024611;28;20213;-70
2021/12/18 07:30:40;;;;;;;83.10;30.77;;;2.50;95.60;;;;;;5018115;28;20348;-70
2021/12/18 07:33:10;;;;;;;67.13;31.07;;;2.60;95.60;;;;;;5025885;28;20210;-70
2021/12/18 07:35:39;;;;;;;84.30;32.67;;;2.60;95.50;;;;;;5029300;28;20488;-70
2021/12/18 07:38:07;;;;;;;114.87;34.90;;;2.60;95.50;;;;;;5023624;28;20208;-70
2021/12/18 07:40:34;;;;;;;75.83;29.90;;;2.70;95.40;;;;;;5045474;28;20208;-70
2021/12/18 07:43:01;;;;;;;71.63;30.57;;;2.70;95.30;;;;;;5032674;28;20207;-70
2021/12/18 07:45:33;;;;;;;80.17;32.47;;;2.70;95.30;;;;;;5039048;28;20225;-71
2021/12/18 07:48:01;;;;;;;105.53;34.43;;;2.80;95.30;;;;;;5025086;28;20212;-71
2021/12/18 07:50:28;;;;;;;79.07;33.07;;;2.80;95.20;;;;;;5027551;28;20243;-70
2021/12/18 07:52:56;;;;;;;74.80;31.37;;;2.80;95.10;;;;;;5045396;28;20215;-70
2021/12/18 07:55:23;;;;;;;85.07;32.23;;;2.90;95.10;;;;;;5025002;28;20232;-70
2021/12/18 07:57:51;;;;;;;75.13;31.00;;;2.90;95.00;;;;;;5023728;28;20209;-71
2021/12/18 08:00:20;;;;;;;84.67;34.00;;;2.90;95.00;;;;;;5022873;28;20551;-71
2021/12/18 08:02:47;;;;;;;83.07;36.40;;;3.00;95.00;;;;;;5020853;28;20227;-71
2021/12/18 08:05:15;;;;;;;86.23;31.73;;;3.00;94.90;;;;;;5023452;28;20218;-71
2021/12/18 08:07:42;;;;;;;65.00;32.30;;;3.00;94.90;;;;;;5024982;28;20217;-71
2021/12/18 08:10:10;;;;;;;77.63;32.67;;;3.00;94.80;;;;;;5024717;28;20247;-71
2021/12/18 08:12:37;;;;;;;70.27;31.00;;;3.10;94.70;;;;;;5026616;28;20675;-71
2021/12/18 08:15:06;;;;;;;62.17;31.87;;;3.10;94.70;;;;;;5015262;28;20299;-70
2021/12/18 08:17:34;;;;;;;83.20;32.37;;;3.10;94.70;;;;;;5005224;28;20220;-70
2021/12/18 08:20:03;;;;;;;66.27;32.50;;;3.20;94.60;;;;;;5025555;28;20219;-70
2021/12/18 08:22:31;;;;;;;65.77;34.60;;;3.20;94.60;;;;;;5012236;28;20680;-70
2021/12/18 08:24:58;;;;;;;78.87;31.37;;;3.20;94.60;;;;;;5032011;28;20226;-70
2021/12/18 08:27:29;;;;;;;67.57;32.80;;;3.30;94.60;;;;;;5018167;28;20236;-70
2021/12/18 08:29:56;;;;;;;94.77;36.47;;;3.30;94.60;;;;;;5023846;28;20251;-70
2021/12/18 08:32:24;;;;;;;60.40;34.87;;;3.30;94.50;;;;;;5024071;28;20219;-70
2021/12/18 08:34:51;;;;;;;59.43;32.53;;;3.40;94.50;;;;;;5019816;28;20310;-70
2021/12/18 08:37:20;;;;;;;62.83;33.27;;;3.40;94.50;;;;;;5028471;28;20211;-70
2021/12/18 08:39:48;;;;;;;86.23;38.10;;;3.40;94.50;;;;;;5022301;28;20222;-70
2021/12/18 08:42:16;;;;;;;68.27;34.27;;;3.40;94.50;;;;;;5021443;28;20303;-70
2021/12/18 08:44:43;;;;;;;71.03;34.50;;;3.50;94.40;;;;;;5014490;28;20223;-70
2021/12/18 08:47:11;;;;;;;60.23;34.27;;;3.50;94.30;;;;;;5007804;28;20219;-70
2021/12/18 08:49:38;;;;;;;61.77;32.73;;;3.50;94.40;;;;;;5023285;28;20663;-71
2021/12/18 08:52:06;;;;;;;55.57;32.83;;;3.50;94.40;;;;;;5020963;28;20306;-70
2021/12/18 08:54:33;;;;;;;58.40;33.50;;;3.60;94.40;;;;;;5026552;28;20224;-70
2021/12/18 08:57:08;;;;;;;68.30;34.73;;;3.60;94.40;;;;;;5008105;28;20205;-71
2021/12/18 08:59:37;;;;;;;71.90;35.83;;;3.70;94.40;;;;;;5026189;28;20307;-70
2021/12/18 09:02:05;;;;;;;73.17;35.93;;;3.70;94.40;;;;;;5021363;28;20227;-70
2021/12/18 09:04:33;;;;;;;77.87;37.80;;;3.80;94.40;;;;;;5038644;28;20233;-70
2021/12/18 09:07:00;;;;;;;80.10;39.57;;;3.80;94.40;;;;;;5028722;28;20211;-70
2021/12/18 09:09:28;;;;;;;85.70;40.10;;;3.90;94.40;;;;;;5025759;28;20218;-70
2021/12/18 09:11:55;;;;;;;72.90;40.47;;;4.00;94.40;;;;;;5039912;28;20211;-70
2021/12/18 09:14:22;;;;;;;78.33;43.30;;;4.00;94.40;;;;;;5035110;28;20234;-70
2021/12/18 09:16:52;;;;;;;110.40;44.00;;;4.10;94.30;;;;;;5014162;28;20630;-71
2021/12/18 09:19:20;;;;;;;105.63;43.00;;;4.10;94.30;;;;;;5030695;28;20241;-71
2021/12/18 09:21:47;;;;;;;80.27;39.43;;;4.10;94.20;;;;;;5025126;28;20207;-71
2021/12/18 09:24:14;;;;;;;106.03;40.70;;;4.10;94.10;;;;;;5029354;28;20213;-71
2021/12/18 09:26:41;;;;;;;82.60;40.23;;;4.10;94.10;;;;;;5019743;28;20258;-71
2021/12/18 09:29:09;;;;;;;85.97;38.93;;;4.10;94.10;;;;;;5006829;28;20220;-70
2021/12/18 09:31:36;;;;;;;73.13;40.13;;;4.20;94.10;;;;;;5025104;28;20690;-70
2021/12/18 09:34:03;;;;;;;81.90;38.13;;;4.20;94.10;;;;;;5027505;28;20215;-70
2021/12/18 09:36:31;;;;;;;66.97;38.43;;;4.20;94.10;;;;;;5030460;28;20215;-70
2021/12/18 09:39:02;;;;;;;75.60;39.33;;;4.20;94.10;;;;;;5030280;28;20220;-70
2021/12/18 09:41:29;;;;;;;71.23;40.87;;;4.30;94.10;;;;;;5024784;28;20212;-70
2021/12/18 09:43:56;;;;;;;74.00;39.43;;;4.30;94.10;;;;;;5037277;28;20292;-70
2021/12/18 09:46:25;;;;;;;79.10;42.00;;;4.30;94.10;;;;;;5031648;28;20586;-71
2021/12/18 09:48:52;;;;;;;86.83;43.77;;;4.30;94.10;;;;;;5024541;28;20312;-71
2021/12/18 09:51:27;;;;;;;72.70;40.63;;;4.30;94.10;;;;;;5041663;28;20223;-71
2021/12/18 09:53:55;;;;;;;82.17;40.97;;;4.40;94.10;;;;;;5020805;28;20299;-70
2021/12/18 09:56:25;;;;;;;74.83;41.97;;;4.40;93.80;;;;;;5016751;28;20768;-70
2021/12/18 09:58:52;;;;;;;82.17;40.80;;;4.40;93.90;;;;;;5016398;28;20212;-70
2021/12/18 10:01:20;;;;;;;84.20;43.23;;;4.40;93.90;;;;;;5018913;28;20212;-71
2021/12/18 10:03:51;;;;;;;89.17;42.33;;;4.40;94.00;;;;;;5024453;28;20250;-70
2021/12/18 10:06:43;;;;;;;89.27;43.67;;;4.40;94.00;;;;;;5028524;28;20281;-70
2021/12/18 10:09:31;;;;;;;101.77;42.00;;;4.40;94.10;;;;;;5009741;28;20208;-70
2021/12/18 10:12:20;;;;;;;79.27;41.97;;;4.40;94.10;;;;;;5025684;28;20248;-71
2021/12/18 10:14:51;;;;;;;70.63;40.13;;;4.50;94.20;;;;;;5016441;28;20240;-70
2021/12/18 10:17:21;;;;;;;76.03;41.63;;;4.50;94.20;;;;;;5013417;28;20227;-70
2021/12/18 10:19:50;;;;;;;86.43;41.50;;;4.50;94.10;;;;;;5027624;28;20222;-70
2021/12/18 10:22:17;;;;;;;74.17;39.77;;;4.50;94.00;;;;;;5012339;28;20214;-70
2021/12/18 10:25:02;;;;;;;83.40;41.50;;;4.50;94.00;;;;;;5024812;28;20248;-70
2021/12/18 10:27:29;;;;;;;79.83;41.73;;;4.50;94.10;;;;;;5010315;28;20222;-70
2021/12/18 10:30:08;;;;;;;79.53;44.77;;;4.50;94.10;;;;;;5031074;28;20320;-70
2021/12/18 10:32:36;;;;;;;84.00;42.83;;;4.60;94.20;;;;;;5028012;28;20208;-70
2021/12/18 10:35:04;;;;;;;89.73;42.97;;;4.70;94.20;;;;;;5011934;28;20538;-70
2021/12/18 10:37:33;;;;;;;86.97;43.80;;;4.70;94.20;;;;;;5031814;28;20212;-70
2021/12/18 10:40:05;;;;;;;86.97;44.07;;;4.70;94.10;;;;;;5036132;28;20214;-70
2021/12/18 10:42:53;;;;;;;85.13;44.00;;;4.70;93.70;;;;;;5029959;28;20227;-71
2021/12/18 10:45:27;;;;;;;86.57;45.43;;;4.60;93.70;;;;;;5018206;28;20247;-70
2021/12/18 10:48:03;;;;;;;104.97;46.63;;;4.60;93.90;;;;;;5007570;28;20240;-71
2021/12/18 10:50:53;;;;;;;90.63;48.20;;;4.60;94.00;;;;;;5033179;28;20217;-70
2021/12/18 10:53:27;;;;;;;89.50;45.77;;;4.70;94.10;;;;;;5012571;28;20221;-71
2021/12/18 10:55:56;;;;;;;96.77;46.97;;;4.70;94.20;;;;;;5027466;28;20244;-70
2021/12/18 10:58:32;;;;;;;93.63;48.73;;;4.70;94.20;;;;;;5019288;28;20219;-70
2021/12/18 11:00:59;;;;;;;96.33;47.17;;;4.80;94.20;;;;;;5021430;28;20233;-70
2021/12/18 11:03:43;;;;;;;88.50;44.87;;;4.80;94.20;;;;;;5026412;28;20276;-70
2021/12/18 11:06:25;;;;;;;95.53;47.67;;;4.80;94.20;;;;;;5028920;28;20217;-70
2021/12/18 11:09:00;;;;;;;97.73;47.40;;;4.90;94.30;;;;;;5037234;28;20658;-70
2021/12/18 11:14:14;;;;;;;94.23;46.10;;;5.00;94.40;;;;;;5032461;28;20296;-70
2021/12/18 11:16:47;;;;;;;92.67;48.40;;;5.00;94.20;;;;;;5024237;28;20256;-70
2021/12/18 11:19:18;;;;;;;89.27;48.40;;;5.00;94.00;;;;;;5023811;28;20642;-70
2021/12/18 11:21:55;;;;;;;97.20;49.93;;;5.00;94.10;;;;;;5027944;28;20220;-70
2021/12/18 11:24:32;;;;;;;102.63;47.97;;;5.00;94.20;;;;;;5038980;28;20533;-70
2021/12/18 11:27:04;;;;;;;91.00;45.77;;;5.10;94.30;;;;;;5044874;28;20731;-70
2021/12/18 11:29:40;;;;;;;95.90;48.13;;;5.10;94.20;;;;;;5029693;28;20227;-70
2021/12/18 11:32:10;;;;;;;86.00;45.90;;;5.10;94.30;;;;;;5034330;28;20231;-70
2021/12/18 11:34:39;;;;;;;89.60;45.03;;;5.20;94.30;;;;;;5025640;28;20213;-70
2021/12/18 11:37:09;;;;;;;94.40;49.43;;;5.20;94.40;;;;;;5025031;28;20242;-70
2021/12/18 11:39:38;;;;;;;93.40;47.40;;;5.30;94.40;;;;;;5026157;28;20206;-70
2021/12/18 11:42:06;;;;;;;97.07;48.23;;;5.30;94.30;;;;;;5024485;28;20204;-70
2021/12/18 11:44:40;;;;;;;94.30;48.40;;;5.30;94.20;;;;;;5032788;28;20220;-70
2021/12/18 11:47:26;;;;;;;82.90;47.10;;;5.30;94.20;;;;;;5025676;28;20218;-71
2021/12/18 11:50:15;;;;;;;93.57;45.93;;;5.30;94.20;;;;;;5022147;28;20550;-70
2021/12/18 11:52:56;;;;;;;101.40;50.47;;;5.40;94.20;;;;;;5021308;28;20661;-70
2021/12/18 11:55:27;;;;;;;93.83;48.37;;;5.40;94.20;;;;;;5026913;28;20279;-70
2021/12/18 11:57:58;;;;;;;92.17;47.37;;;5.40;94.20;;;;;;5025304;28;20221;-71
2021/12/18 12:00:44;;;;;;;100.53;47.27;;;5.40;94.20;;;;;;5021934;28;20219;-70
2021/12/18 12:03:26;;;;;;;96.53;47.40;;;5.40;93.80;;;;;;5033335;28;20240;-70
2021/12/18 12:05:54;;;;;;;96.37;48.37;;;5.30;93.60;;;;;;5027397;28;20220;-70
2021/12/18 12:08:40;;;;;;;92.60;46.43;;;5.30;93.70;;;;;;5006726;28;20313;-70
2021/12/18 12:11:16;;;;;;;99.73;48.80;;;5.30;94.00;;;;;;5031171;28;20226;-70
2021/12/18 12:14:17;;;;;;;87.53;46.83;;;5.30;94.10;;;;;;5014300;28;20222;-70
2021/12/18 12:16:44;;;;;;;96.30;47.93;;;5.30;94.20;;;;;;5025613;28;20236;-70
2021/12/18 12:19:19;;;;;;;94.33;46.77;;;5.30;94.20;;;;;;5025879;28;20210;-70
2021/12/18 12:21:55;;;;;;;103.67;48.90;;;5.40;94.30;;;;;;5011727;28;20222;-70
2021/12/18 12:24:31;;;;;;;97.20;48.83;;;5.40;94.30;;;;;;5028446;28;20208;-70
2021/12/18 12:27:28;;;;;;;95.13;46.53;;;5.40;94.30;;;;;;5008837;28;20240;-70
2021/12/18 12:29:58;;;;;;;90.97;46.37;;;5.40;94.30;;;;;;5023429;28;20333;-70
2021/12/18 12:32:29;;;;;;;112.47;49.73;;;5.50;94.20;;;;;;5019100;28;20222;-69
2021/12/18 12:35:03;;;;;;;105.73;48.80;;;5.40;94.20;;;;;;5028312;28;20645;-69
2021/12/18 12:37:34;;;;;;;94.83;45.47;;;5.40;94.10;;;;;;5023944;28;20325;-70
2021/12/18 12:40:06;;;;;;;95.07;48.40;;;5.40;94.10;;;;;;5027876;28;20708;-70
2021/12/18 12:42:35;;;;;;;91.50;45.93;;;5.40;94.10;;;;;;5031035;28;20240;-70
2021/12/18 12:45:12;;;;;;;99.87;47.13;;;5.40;94.40;;;;;;5032278;28;20267;-70
2021/12/18 12:47:41;;;;;;;100.30;48.23;;;5.40;94.10;;;;;;5026532;28;20220;-70
2021/12/18 12:50:11;;;;;;;101.40;48.90;;;5.50;94.20;;;;;;5021612;28;20222;-70
2021/12/18 12:53:04;;;;;;;103.77;50.87;;;5.40;94.20;;;;;;5017004;28;20240;-70
2021/12/18 12:55:40;;;;;;;103.87;48.57;;;5.50;94.20;;;;;;5023471;28;20696;-70
2021/12/18 12:58:22;;;;;;;112.73;48.63;;;5.40;94.10;;;;;;5026436;28;20264;-70
2021/12/18 13:00:54;;;;;;;122.83;50.23;;;5.40;93.90;;;;;;5025453;28;20244;-70
2021/12/18 13:03:25;;;;;;;96.17;48.23;;;5.40;94.00;;;;;;5033056;28;20831;-70
2021/12/18 13:06:13;;;;;;;106.33;48.63;;;5.30;94.10;;;;;;5037384;28;20253;-70
2021/12/18 13:08:42;;;;;;;92.90;48.97;;;5.30;94.10;;;;;;5022641;28;20252;-70
2021/12/18 13:11:19;;;;;;;97.73;46.53;;;5.30;94.20;;;;;;5021593;28;20220;-70
2021/12/18 13:13:47;;;;;;;114.73;50.60;;;5.30;94.20;;;;;;5019293;28;20225;-70
2021/12/18 13:16:18;;;;;;;122.43;49.47;;;5.30;94.20;;;;;;5041220;28;20237;-70
2021/12/18 13:18:50;;;;;;;117.23;47.73;;;5.30;94.30;;;;;;5025334;28;20210;-70
2021/12/18 13:21:26;;;;;;;107.73;48.20;;;5.30;94.20;;;;;;5039947;28;20205;-70
2021/12/18 13:24:04;;;;;;;107.53;47.07;;;5.40;94.30;;;;;;5043434;28;20219;-70
2021/12/18 13:26:40;;;;;;;101.33;46.50;;;5.30;94.20;;;;;;5035094;28;20650;-70
2021/12/18 13:29:20;;;;;;;117.90;46.77;;;5.30;94.20;;;;;;5023603;28;20232;-70
2021/12/18 13:31:54;;;;;;;106.10;48.37;;;5.30;94.20;;;;;;5023310;28;20217;-70
2021/12/18 13:34:23;;;;;;;105.50;44.67;;;5.30;94.20;;;;;;5029857;28;20239;-70
2021/12/18 13:36:57;;;;;;;107.20;47.70;;;5.30;94.20;;;;;;5029461;28;20340;-70